オウル空港の過去48時間の天気

オウル空港 (Oulu)

現在時刻: 11/16 18:54 EET (11/16 16:54 UTC) 以下の時間は現地時間です。

過去48時間のMETAR気象情報
時間 風向 風速(m/s) 視程 気温(℃) 湿度(%) 気圧(hPa) 天気現象
16 18:20 西南西 4 10km以上 6 93 1022
16 17:50 南西 6 10km以上 7 87 1022
16 17:20 西南西 7 10km以上 7 87 1022
16 16:50 西南西 7 10km以上 7 87 1022
16 16:20 南西 8 10km以上 8 81 1022
16 15:50 南西 7 10km以上 8 81 1022
16 15:20 南西 7 10km以上 8 87 1022
16 14:50 西南西 7 10km以上 9 81 1022
16 14:20 南西 5 10km以上 10 76 1022
16 13:50 南西 5 10km以上 10 82 1022
16 13:20 南南西 4 10km以上 9 87 1022
16 12:50 南南西 4 10km以上 9 93 1022
16 12:20 南西 4 10km以上 9 93 1023
16 11:50 南南西 4 10km以上 9 93 1023
16 11:20 南西 3 10km以上 9 87 1023
16 10:50 南南西 4 10km以上 9 87 1023
16 10:20 南西 4 10km以上 9 93 1023
16 09:50 南西 4 10km以上 9 93 1023
16 09:20 南西 4 10km以上 9 93 1023
16 08:50 南南西 4 10km以上 9 93 1023
16 08:20 南南西 3 10km以上 9 93 1023
16 07:50 南南西 4 10km以上 9 93 1023
16 07:20 南南西 4 10km以上 9 93 1023
16 06:50 南西 3 10km以上 9 93 1023 弱い雨
16 06:20 南西 4 10km以上 9 93 1023
16 05:50 南南西 3 10km以上 8 93 1023
16 05:20 南南西 3 10km以上 8 93 1023
16 04:50 南西 4 10km以上 8 93 1023
16 04:20 南西 4 10km以上 8 93 1023
16 03:50 南西 3 10km以上 8 87 1023
16 03:20 南西 4 10km以上 7 100 1022
16 02:50 南南西 3 10km以上 7 93 1022
16 02:20 南西 3 10km以上 7 93 1022
16 01:50 南西 4 10km以上 6 100 1022
16 01:20 西南西 4 10km以上 7 93 1022
16 00:50 西南西 5 10km以上 7 93 1022
16 00:20 南西 5 10km以上 7 93 1021
15 23:50 南西 4 10km以上 6 100 1021
15 23:20 南西 4 10km以上 6 93 1021
15 22:50 南西 4 10km以上 6 93 1020
15 22:20 南西 4 10km以上 6 93 1020
15 21:50 南西 5 10km以上 6 93 1020
15 21:20 南西 4 10km以上 6 93 1020
15 20:50 南西 5 10km以上 6 93 1020
15 20:20 西南西 4 10km以上 6 93 1020
15 19:50 西南西 5 10km以上 7 93 1019
15 19:20 西南西 6 10km以上 7 93 1019
15 18:50 南西 7 10km以上 7 93 1019
15 18:20 南西 5 10km以上 7 100 1019
15 17:50 南西 5 10km以上 7 93 1019
15 17:20 南南西 4 8000m 6 100 1019 弱い雨
15 16:50 南南西 4 8000m 6 100 1019
15 16:20 3 8000m 6 100 1019
15 15:50 南南西 3 6000m 6 100 1019
15 15:20 南南西 4 4500m 6 100 1019 弱い雨 もや
15 14:50 南南西 4 3400m 6 93 1018 もや
15 14:20 3 10km以上 6 93 1018
15 13:50 南南西 4 8000m 5 100 1018
15 13:20 南南西 4 7000m 5 100 1018
15 12:50 南南西 5 8000m 5 100 1018
15 12:20 南南西 5 8000m 5 93 1018
15 11:50 4 10km以上 5 93 1018
15 11:20 4 10km以上 5 93 1019
15 10:50 4 10km以上 4 100 1019
15 10:20 4 10km以上 4 100 1019
15 09:50 4 10km以上 4 100 1019
15 09:20 南南東 3 10km以上 3 100 1019
15 08:50 南南東 4 10km以上 3 100 1019
15 08:20 南南東 3 10km以上 3 100 1019
15 07:50 5 10km以上 3 100 1019
15 07:20 5 8000m 2 100 1019
15 06:50 南南東 5 7000m 2 100 1019
15 06:20 4 10km以上 2 100 1019
15 05:50 5 10km以上 3 93 1020
15 05:20 4 10km以上 3 100 1020
15 04:50 南南西 5 10km以上 3 100 1020
15 04:20 4 7000m 3 100 1020
15 03:50 4 8000m 3 100 1020
15 03:20 4 10km以上 2 100 1020
15 02:50 5 10km以上 2 100 1019
15 02:20 4 10km以上 2 100 1020
15 01:50 4 10km以上 3 100 1020
15 01:20 4 10km以上 3 100 1020
15 00:50 2 10km以上 3 100 1020
15 00:20 南西 3 10km以上 3 100 1020
14 23:50 南南西 3 10km以上 3 100 1020
14 23:20 3 10km以上 3 100 1020
14 22:50 2 10km以上 3 100 1020
14 22:20 南南東 2 10km以上 3 100 1020
14 21:50 南南東 3 10km以上 2 100 1020
14 21:20 南南東 3 10km以上 2 100 1020
14 20:50 南南東 3 10km以上 2 100 1019
14 20:20 南東 3 10km以上 2 100 1019
14 19:50 南東 2 3800m 2 100 1019 もや
14 19:20 東南東 2 2200m 2 100 1019 もや
EFOU 161620Z AUTO 25008KT 220V290 9999 OVC007/// 06/05 Q1022
EFOU 161550Z AUTO 23012G22KT 9999 OVC008/// 07/05 Q1022
EFOU 161520Z AUTO 24014KT 9999 OVC010/// 07/05 Q1022
EFOU 161450Z AUTO 24013KT 210V270 9999 OVC012/// 07/05 Q1022
EFOU 161420Z AUTO 23015KT 9999 OVC013/// 08/05 Q1022
EFOU 161350Z AUTO 23014G24KT 9999 OVC015/// 08/05 Q1022
EFOU 161320Z AUTO 23013KT 9999 BKN017/// BKN021/// OVC025/// 08/06 Q1022
EFOU 161250Z AUTO 24013KT 210V270 9999 FEW017/// BKN020/// OVC023/// 09/06 Q1022
EFOU 161220Z AUTO 23010KT 9999 OVC024/// 10/06 Q1022
EFOU 161150Z AUTO 22009KT 9999 FEW016/// OVC022/// 10/07 Q1022
EFOU 161120Z AUTO 20007KT 180V240 9999 FEW014/// OVC017/// 09/07 Q1022
EFOU 161050Z AUTO 21007KT 180V240 9999 BKN010/// OVC017/// 09/08 Q1022
EFOU 161020Z AUTO 23008KT 9999 OVC012/// 09/08 Q1023
EFOU 160950Z AUTO 21008KT 170V240 9999 OVC014/// 09/08 Q1023
EFOU 160920Z AUTO 22006KT 9999 OVC014/// 09/07 Q1023
EFOU 160850Z AUTO 21007KT 180V240 9999 OVC012/// 09/07 Q1023
EFOU 160820Z AUTO 23008KT 9999 OVC011/// 09/08 Q1023
EFOU 160750Z AUTO 22007KT 190V250 9999 OVC011/// 09/08 Q1023
EFOU 160720Z AUTO 22007KT 210V270 9999 OVC010/// 09/08 Q1023
EFOU 160650Z AUTO 21007KT 9999 OVC010/// 09/08 Q1023
EFOU 160620Z AUTO 20006KT 9999 OVC010/// 09/08 Q1023
EFOU 160550Z AUTO 21007KT 9999 OVC010/// 09/08 Q1023
EFOU 160520Z AUTO 21007KT 9999 OVC009/// 09/08 Q1023
EFOU 160450Z AUTO 22005KT 9999 -RA OVC009/// 09/08 Q1023
EFOU 160420Z AUTO 22007KT 9999 BKN009/// OVC091/// 09/08 Q1023
EFOU 160350Z AUTO 20005KT 9999 SCT010/// OVC097/// 08/07 Q1023
EFOU 160320Z AUTO 21006KT 9999 SCT011/// OVC100/// 08/07 Q1023
EFOU 160250Z AUTO 23007KT 190V250 9999 OVC100/// 08/07 Q1023
EFOU 160220Z AUTO 23008KT 9999 FEW010/// OVC100/// 08/07 Q1023
EFOU 160150Z AUTO 23006KT 9999 FEW010/// OVC100/// 08/06 Q1023
EFOU 160120Z AUTO 23008KT 9999 FEW010/// OVC100/// 07/07 Q1022
EFOU 160050Z AUTO 20005KT 180V240 9999 BKN010/// OVC100/// 07/06 Q1022
EFOU 160020Z AUTO 22006KT 9999 SCT009/// OVC100/// 07/06 Q1022
EFOU 152350Z AUTO 22007KT 9999 SCT009/// BKN100/// 06/06 Q1022
EFOU 152320Z AUTO 24008KT 9999 BKN008/// 07/06 Q1022
EFOU 152250Z AUTO 25009KT 9999 OVC009/// 07/06 Q1022
EFOU 152220Z AUTO 23009KT 9999 OVC009/// 07/06 Q1021
EFOU 152150Z AUTO 23008KT 9999 OVC009/// 06/06 Q1021
EFOU 152120Z AUTO 23008KT 9999 BKN008/// 06/05 Q1021
EFOU 152050Z AUTO 22008KT 9999 BKN009/// 06/05 Q1020
EFOU 152020Z AUTO 22007KT 190V250 9999 BKN009/// 06/05 Q1020
EFOU 151950Z AUTO 23009KT 9999 BKN010/// BKN099/// 06/05 Q1020
EFOU 151920Z AUTO 23008KT 9999 BKN011/// OVC089/// 06/05 Q1020
EFOU 151850Z AUTO 22009KT 9999 SCT010/// OVC099/// 06/05 Q1020
EFOU 151820Z AUTO 24007KT 9999 FEW009/// BKN011/// BKN100/// 06/05 Q1020
EFOU 151750Z AUTO 24009KT 210V270 9999 BKN008/// BKN010/// OVC014/// 07/06 Q1019
EFOU 151720Z AUTO 24012KT 210V270 9999 OVC007/// 07/06 Q1019
EFOU 151650Z AUTO 23013KT 9999 OVC006/// 07/06 Q1019
EFOU 151620Z AUTO 23010G20KT 210V270 9999 OVC007/// 07/07 Q1019
EFOU 151550Z AUTO 22010KT 9999 OVC006/// 07/06 Q1019
EFOU 151520Z AUTO 21007KT 8000 -RA OVC007/// 06/06 Q1019
EFOU 151450Z AUTO 20007KT 8000 OVC006/// 06/06 Q1019
EFOU 151420Z AUTO 19006KT 8000 OVC006/// 06/06 Q1019
EFOU 151350Z AUTO 20006KT 6000 OVC006/// 06/06 Q1019
EFOU 151320Z AUTO 20007KT 4500 -RA BR SCT004/// OVC006/// 06/06 Q1019
EFOU 151250Z AUTO 20007KT 3400 BR OVC006/// 06/05 Q1018
EFOU 151220Z AUTO 18006KT 9999 OVC008/// 06/05 Q1018
EFOU 151150Z AUTO 20007KT 8000 OVC007/// 05/05 Q1018
EFOU 151120Z AUTO 20007KT 7000 OVC007/// 05/05 Q1018
EFOU 151050Z AUTO 20009KT 8000 OVC007/// 05/05 Q1018
EFOU 151020Z AUTO 20009KT 8000 OVC009/// 05/04 Q1018
EFOU 150950Z AUTO 19008KT 9999 OVC012/// 05/04 Q1018
EFOU 150920Z AUTO 19008KT 150V220 9999 OVC014/// 05/04 Q1019
EFOU 150850Z AUTO 18008KT 9999 OVC014/// 04/04 Q1019
EFOU 150820Z AUTO 17007KT 9999 BKN009/// OVC013/// 04/04 Q1019
EFOU 150750Z AUTO 17007KT 9999 OVC005/// 04/04 Q1019
EFOU 150720Z AUTO 16006KT 9999 OVC004/// 03/03 Q1019
EFOU 150650Z AUTO 16007KT 9999 OVC004/// 03/03 Q1019
EFOU 150620Z AUTO 16006KT 9999 OVC004/// 03/03 Q1019
EFOU 150550Z AUTO 17009KT 9999 OVC004/// 03/03 Q1019
EFOU 150520Z AUTO 17009KT 8000 OVC004/// 02/02 Q1019
EFOU 150450Z AUTO 16010KT 7000 OVC004/// 02/02 Q1019
EFOU 150420Z AUTO 18007KT 9999 OVC005/// 02/02 Q1019
EFOU 150350Z AUTO 19010KT 9999 SCT004/// OVC006/// 03/02 Q1020
EFOU 150320Z AUTO 19008KT 9999 OVC003/// 03/03 Q1020
EFOU 150250Z AUTO 20009KT 9999 OVC002/// 03/03 Q1020
EFOU 150220Z AUTO 19007KT 7000 OVC002/// 03/03 Q1020
EFOU 150150Z AUTO 18007KT 8000 OVC002/// 03/03 Q1020
EFOU 150120Z AUTO 19008KT 9999 OVC004/// 02/02 Q1020
EFOU 150050Z AUTO 18009KT 9999 OVC003/// 02/02 Q1019
EFOU 150020Z AUTO 18008KT 9999 OVC003/// 02/02 Q1020
EFOU 142350Z AUTO 18008KT 9999 OVC003/// 03/03 Q1020
EFOU 142320Z AUTO 18007KT 9999 OVC003/// 03/03 Q1020
EFOU 142250Z AUTO 19004KT 9999 OVC004/// 03/03 Q1020
EFOU 142220Z AUTO 22006KT 9999 OVC004/// 03/03 Q1020
EFOU 142150Z AUTO 20005KT 9999 OVC004/// 03/03 Q1020
EFOU 142120Z AUTO 19005KT 9999 OVC004/// 03/03 Q1020
EFOU 142050Z AUTO 18003KT 9999 OVC004/// 03/03 Q1020
EFOU 142020Z AUTO 16004KT 9999 OVC004/// 03/03 Q1020
EFOU 141950Z AUTO 15005KT 9999 FEW002/// OVC005/// 02/02 Q1020
EFOU 141920Z AUTO 16005KT 9999 SCT002/// SCT004/// OVC009/// 02/02 Q1020
EFOU 141850Z AUTO 15006KT 9999 FEW001/// SCT003/// OVC010/// 02/02 Q1019
EFOU 141820Z AUTO 14006KT 9999 SCT001/// BKN006/// OVC013/// 02/02 Q1019
EFOU 141750Z AUTO 13004KT 3800 BR SCT002/// BKN005/// OVC010/// 02/02 Q1019
EFOU 141720Z AUTO 11003KT 2200 BR BKN002/// OVC006/// 02/02 Q1019